Kandahar Airport
OAKN : now visible

Airfield :











YOU CAN JOIN US ON...

 
LOGIN :

Register | Disclaimer

   EN    FR    IT 

 









Legend :    VFR   Marginal VFR   IFR   Intensive IFR   Very Intensive IFR
Visi :
Ceiling :
>= 8 km
>= 3000ft
5 to 8 km
1000 to 3000 ft
1500m to 5 km
500 to 1000 ft
800 to 1500m
200 to 500 ft
< 800m
< 200 ft
Symbols :   Thunderstorms  Fog  Heavy snow  Heavy precipitations  Wind > 20 kt







- Airport Elevation : 3337 ft
- IATA code : KDH


OAKN - Kandahar

CURRENT METAR :
  • 190057Z VRB02KT 9000 BR SCT110 BKN150 11/07 A2989 RMK AO2A SLP092 WND DATA ESTMD Q1013 PA3322 DA3672 T01110065

EXPIRED METARs :
  • 182356Z VRB03KT 9000 BR BKN150 11/07 A2988 RMK AO2A SLP089 WND DATA ESTMD Q1013 PA3329 DA3665 60000 T01090065 10134 20106 55001
  • 182259Z 00000KT 9000 BR FEW035 FEW095 SCT140 11/07 A2988 RMK AO2A SLP087 WND DATA ESTMD Q1013 PA3330 DA3685 T01110073

TAF TAF OAKN
Valid from the 18 at 23:00 until the 20 at 05:00 UTC


182300Z 1823/2005 VRB06KT 9000 BR FEW035 SCT120 QNH2985INS
TEMPO 1823/1905 4400 BR BKN120
BECMG 1906/1907 27010G15KT 9999 NSW SCT120 QNH2988INS
BECMG 1912/1913 29009KT 9999 FEW120 QNH2989INS TX21/1911Z TN09/1902Z
OAKX FIR / Asia



MET'MAP, your aeronautical weather chart ! - Copyright ORBIFLY December 2007 - Disclaimer

ORBIFLY MET'MAP TEAM :

Programming & Development : Alexandra Zaïnal
Concept & Development : Baudouin d'Aumeries
Co-Development & Prog : Marc-Olivier Méhu
Technical & hardware support : Manuel Goepfert

Contact : metmap@orbifly.com




SOURCES & CREDITS :

   NOAA       Earth
Advisory